createdAt,value
2019-01-13T00:00:41.161Z,8.03
2019-01-13T00:03:07.450Z,8.05
2019-01-13T00:05:33.755Z,8.08
2019-01-13T00:08:00.053Z,8.09
2019-01-13T00:10:26.356Z,8.08
2019-01-13T00:12:52.656Z,8.08
2019-01-13T00:15:18.952Z,8.10
2019-01-13T00:17:45.271Z,8.09
2019-01-13T00:20:11.587Z,8.09
2019-01-13T00:22:37.889Z,8.10
2019-01-13T00:25:04.198Z,8.12
2019-01-13T00:27:30.511Z,8.13
2019-01-13T00:29:56.827Z,8.14
2019-01-13T00:32:23.131Z,8.14
2019-01-13T00:34:49.440Z,8.03
2019-01-13T00:37:15.735Z,7.91
2019-01-13T00:39:42.050Z,7.78
2019-01-13T00:42:08.363Z,7.76
2019-01-13T00:44:34.678Z,7.81
2019-01-13T00:47:00.978Z,7.86
2019-01-13T00:49:27.275Z,7.91
2019-01-13T00:51:53.567Z,7.95
2019-01-13T00:54:19.904Z,7.97
2019-01-13T00:56:46.163Z,7.99
2019-01-13T00:59:12.457Z,8.02
2019-01-13T01:01:38.757Z,8.02
2019-01-13T01:04:05.066Z,8.02
2019-01-13T01:06:31.431Z,8.02
2019-01-13T01:08:57.735Z,8.03
2019-01-13T01:11:24.044Z,8.00
2019-01-13T01:13:50.356Z,8.04
2019-01-13T01:16:16.646Z,8.04
2019-01-13T01:18:42.990Z,8.01
2019-01-13T01:21:09.261Z,7.89
2019-01-13T01:23:35.568Z,7.79
2019-01-13T01:26:01.879Z,7.71
2019-01-13T01:28:28.175Z,7.67
2019-01-13T01:30:54.503Z,7.76
2019-01-13T01:33:25.949Z,7.83
2019-01-13T01:35:47.099Z,7.91
2019-01-13T01:38:13.396Z,7.95
2019-01-13T01:40:39.702Z,7.95
2019-01-13T01:43:06.007Z,7.98
2019-01-13T01:45:32.318Z,7.98
2019-01-13T01:47:58.644Z,8.00
2019-01-13T01:50:24.952Z,8.00
2019-01-13T01:52:51.261Z,7.99
2019-01-13T01:55:17.558Z,7.99
2019-01-13T01:57:43.858Z,7.99
2019-01-13T02:00:10.210Z,7.99
2019-01-13T02:02:36.522Z,7.99
2019-01-13T02:05:02.821Z,7.97
2019-01-13T02:07:29.137Z,7.84
2019-01-13T02:09:55.460Z,7.75
2019-01-13T02:12:21.760Z,7.67
2019-01-13T02:14:48.077Z,7.67
2019-01-13T02:17:14.395Z,7.74
2019-01-13T02:19:40.696Z,7.79
2019-01-13T02:22:06.991Z,7.84
2019-01-13T02:24:33.307Z,7.87
2019-01-13T02:26:59.598Z,7.91
2019-01-13T02:29:25.913Z,7.92
2019-01-13T02:31:52.222Z,7.94
2019-01-13T02:34:18.517Z,7.93
2019-01-13T02:36:44.818Z,7.95
2019-01-13T02:39:11.109Z,7.97
2019-01-13T02:41:37.442Z,7.97
2019-01-13T02:44:03.752Z,7.97
2019-01-13T02:46:30.058Z,7.97
2019-01-13T02:48:56.361Z,8.00
2019-01-13T02:51:22.656Z,7.98
2019-01-13T02:53:48.993Z,7.85
2019-01-13T02:56:15.287Z,7.75
2019-01-13T02:58:41.580Z,7.65
2019-01-13T03:01:07.883Z,7.69
2019-01-13T03:03:34.196Z,7.73
2019-01-13T03:06:00.524Z,7.79
2019-01-13T03:08:26.849Z,7.84
2019-01-13T03:10:53.156Z,7.88
2019-01-13T03:13:19.462Z,7.90
2019-01-13T03:15:45.756Z,7.92
2019-01-13T03:18:12.078Z,7.93
2019-01-13T03:20:38.372Z,7.90
2019-01-13T03:23:04.668Z,7.91
2019-01-13T03:25:30.980Z,7.93
2019-01-13T03:27:57.282Z,7.96
2019-01-13T03:30:23.615Z,7.97
2019-01-13T03:32:49.915Z,7.99
2019-01-13T03:35:16.214Z,7.97
2019-01-13T03:37:42.513Z,7.93
2019-01-13T03:40:08.800Z,7.83
2019-01-13T03:42:35.117Z,7.75
2019-01-13T03:45:01.421Z,7.68
2019-01-13T03:47:27.752Z,7.70
2019-01-13T03:49:54.065Z,7.77
2019-01-13T03:52:20.364Z,7.80
2019-01-13T03:54:46.662Z,7.82
2019-01-13T03:57:12.949Z,7.86
2019-01-13T03:59:39.257Z,7.90
2019-01-13T04:02:05.558Z,7.94
2019-01-13T04:04:31.865Z,7.93
2019-01-13T04:06:58.166Z,7.94
2019-01-13T04:09:24.472Z,7.93
2019-01-13T04:11:50.806Z,7.96
2019-01-13T04:14:17.097Z,7.97
2019-01-13T04:16:43.391Z,7.99
2019-01-13T04:19:09.688Z,7.99
2019-01-13T04:21:35.998Z,7.98
2019-01-13T04:24:02.315Z,7.89
2019-01-13T04:26:28.638Z,7.77
2019-01-13T04:28:54.959Z,7.69
2019-01-13T04:31:26.635Z,7.62
2019-01-13T04:33:47.548Z,7.68
2019-01-13T04:36:13.844Z,7.74
2019-01-13T04:38:40.158Z,7.76
2019-01-13T04:41:06.453Z,7.80
2019-01-13T04:43:32.766Z,7.82
2019-01-13T04:45:59.061Z,7.85
2019-01-13T04:48:25.384Z,7.88
2019-01-13T04:50:51.695Z,7.87
2019-01-13T04:53:18.001Z,7.88
2019-01-13T04:55:44.299Z,7.87
2019-01-13T04:58:10.601Z,7.88
2019-01-13T05:00:36.914Z,7.90
2019-01-13T05:03:03.213Z,7.92
2019-01-13T05:05:29.502Z,7.92
2019-01-13T05:07:55.802Z,7.92
2019-01-13T05:10:22.092Z,7.81
2019-01-13T05:12:48.438Z,7.70
2019-01-13T05:15:14.736Z,7.60
2019-01-13T05:17:41.046Z,7.55
2019-01-13T05:20:07.345Z,7.64
2019-01-13T05:22:33.659Z,7.68
2019-01-13T05:24:59.961Z,7.75
2019-01-13T05:27:26.265Z,7.77
2019-01-13T05:29:52.580Z,7.77
2019-01-13T05:32:18.886Z,7.80
2019-01-13T05:34:45.181Z,7.78
2019-01-13T05:37:11.474Z,7.79
2019-01-13T05:39:37.785Z,7.83
2019-01-13T05:42:04.147Z,7.82
2019-01-13T05:44:30.455Z,7.79
2019-01-13T05:46:56.784Z,7.84
2019-01-13T05:49:23.100Z,7.83
2019-01-13T05:51:49.399Z,7.85
2019-01-13T05:54:15.705Z,7.85
2019-01-13T05:56:42.013Z,7.75
2019-01-13T05:59:08.345Z,7.65
2019-01-13T06:01:34.655Z,7.56
2019-01-13T06:04:00.952Z,7.54
2019-01-13T06:06:27.253Z,7.59
2019-01-13T06:08:53.543Z,7.69
2019-01-13T06:11:19.845Z,7.73
2019-01-13T06:13:46.139Z,7.77
2019-01-13T06:16:12.441Z,7.78
2019-01-13T06:18:38.730Z,7.81
2019-01-13T06:21:05.027Z,7.76
2019-01-13T06:23:31.342Z,7.87
2019-01-13T06:25:57.651Z,7.86
2019-01-13T06:28:23.946Z,7.85
2019-01-13T06:30:50.245Z,7.87
2019-01-13T06:33:16.558Z,7.87
2019-01-13T06:35:42.878Z,7.91
2019-01-13T06:38:09.171Z,7.93
2019-01-13T06:40:35.486Z,7.91
2019-01-13T06:43:01.791Z,8.18
2019-01-13T06:45:28.089Z,9.18
2019-01-13T06:47:54.405Z,9.54
2019-01-13T06:50:20.713Z,9.53
2019-01-13T06:52:47.011Z,9.40
2019-01-13T06:55:13.315Z,9.23
2019-01-13T06:57:39.630Z,9.07
2019-01-13T07:00:05.931Z,8.96
2019-01-13T07:02:32.242Z,8.86
2019-01-13T07:04:58.606Z,8.79
2019-01-13T07:07:24.853Z,8.74
2019-01-13T07:09:51.157Z,8.69
2019-01-13T07:15:01.457Z,8.59
2019-01-13T07:17:27.758Z,8.57
2019-01-13T07:19:54.070Z,8.55
2019-01-13T07:22:20.392Z,8.57
2019-01-13T07:24:46.692Z,8.58
2019-01-13T07:27:12.997Z,8.54
2019-01-13T07:29:39.341Z,8.40
2019-01-13T07:32:10.776Z,8.31
2019-01-13T07:34:31.912Z,8.26
2019-01-13T07:36:58.226Z,8.37
2019-01-13T07:39:24.525Z,8.48
2019-01-13T07:41:50.858Z,8.55
2019-01-13T07:44:17.623Z,8.60
2019-01-13T07:46:43.452Z,8.60
2019-01-13T07:49:09.749Z,8.58
2019-01-13T07:51:36.062Z,8.56
2019-01-13T07:54:02.378Z,8.55
2019-01-13T07:56:28.688Z,8.53
2019-01-13T07:58:54.989Z,8.50
2019-01-13T08:01:21.288Z,8.50
2019-01-13T08:03:47.618Z,8.52
2019-01-13T08:06:13.940Z,8.50
2019-01-13T08:08:40.254Z,8.51
2019-01-13T08:11:06.553Z,8.55
2019-01-13T08:13:32.866Z,8.54
2019-01-13T08:15:59.174Z,8.47
2019-01-13T08:18:25.478Z,8.38
2019-01-13T08:20:51.790Z,8.35
2019-01-13T08:23:18.091Z,8.43
2019-01-13T08:25:44.403Z,8.52
2019-01-13T08:28:10.700Z,8.59
2019-01-13T08:30:37.016Z,8.62
2019-01-13T08:33:03.339Z,8.66
2019-01-13T08:35:29.626Z,8.71
2019-01-13T08:37:55.918Z,8.73
2019-01-13T08:40:22.224Z,8.76
2019-01-13T08:42:48.542Z,8.76
2019-01-13T08:45:14.860Z,8.81
2019-01-13T08:47:41.177Z,8.87
2019-01-13T08:50:07.476Z,8.92
2019-01-13T08:52:33.777Z,9.01
2019-01-13T08:55:00.099Z,9.05
2019-01-13T08:57:26.392Z,9.07
2019-01-13T08:59:52.686Z,9.04
2019-01-13T09:02:18.994Z,8.94
2019-01-13T09:04:45.291Z,8.86
2019-01-13T09:07:11.647Z,8.90
2019-01-13T09:09:37.932Z,9.05
2019-01-13T09:12:04.243Z,9.26
2019-01-13T09:14:30.538Z,9.50
2019-01-13T09:16:56.863Z,9.70
2019-01-13T09:19:23.194Z,9.89
2019-01-13T09:21:49.492Z,10.06
2019-01-13T09:24:15.813Z,10.21
2019-01-13T09:26:42.116Z,10.41
2019-01-13T09:29:08.426Z,10.63
2019-01-13T09:31:34.728Z,10.92
2019-01-13T09:34:01.033Z,11.27
2019-01-13T09:36:27.329Z,11.79
2019-01-13T09:38:53.648Z,12.25
2019-01-13T09:41:19.985Z,12.79
2019-01-13T09:43:46.319Z,13.24
2019-01-13T09:46:12.619Z,13.72
2019-01-13T09:48:38.936Z,14.14
2019-01-13T09:51:05.252Z,14.51
2019-01-13T09:53:31.550Z,14.53
2019-01-13T09:55:57.863Z,14.39
2019-01-13T09:58:24.169Z,14.32
2019-01-13T10:00:50.491Z,14.31
2019-01-13T10:03:16.810Z,14.50
2019-01-13T10:05:43.122Z,14.69
2019-01-13T10:08:09.432Z,14.74
2019-01-13T10:10:35.731Z,14.78
2019-01-13T10:13:02.044Z,14.92
2019-01-13T10:15:28.383Z,15.35
2019-01-13T10:17:54.713Z,15.76
2019-01-13T10:20:20.990Z,16.15
2019-01-13T10:22:47.294Z,16.51
2019-01-13T10:25:13.594Z,16.77
2019-01-13T10:27:39.910Z,16.80
2019-01-13T10:30:06.195Z,16.12
2019-01-13T10:32:32.502Z,16.47
2019-01-13T10:34:58.795Z,17.01
2019-01-13T10:37:25.092Z,17.44
2019-01-13T10:39:51.396Z,17.72
2019-01-13T10:42:17.706Z,17.87
2019-01-13T10:44:44.028Z,18.04
2019-01-13T10:47:10.330Z,18.20
2019-01-13T10:49:36.651Z,18.26
2019-01-13T10:52:02.965Z,18.24
2019-01-13T10:54:29.373Z,18.09
2019-01-13T10:56:55.732Z,17.87
2019-01-13T10:59:21.998Z,17.70
2019-01-13T11:01:48.325Z,17.61
2019-01-13T11:04:14.625Z,17.62
2019-01-13T11:06:41.219Z,17.57
2019-01-13T11:09:07.559Z,17.67
2019-01-13T11:11:33.846Z,17.83
2019-01-13T11:14:00.152Z,18.03
2019-01-13T11:16:26.460Z,18.08
2019-01-13T11:18:52.758Z,18.01
2019-01-13T11:21:19.054Z,17.87
2019-01-13T11:23:45.367Z,17.65
2019-01-13T11:26:11.667Z,17.55
2019-01-13T11:28:37.978Z,17.54
2019-01-13T11:31:04.275Z,17.62
2019-01-13T11:33:30.576Z,17.53
2019-01-13T11:35:56.886Z,17.35
2019-01-13T11:38:23.208Z,17.14
2019-01-13T11:40:49.517Z,16.90
2019-01-13T11:43:15.985Z,16.68
2019-01-13T11:45:42.578Z,16.52
2019-01-13T11:48:08.893Z,16.36
2019-01-13T11:50:35.195Z,16.22
2019-01-13T11:53:01.496Z,16.09
2019-01-13T11:55:27.798Z,15.95
2019-01-13T11:57:54.156Z,15.83
2019-01-13T12:00:20.600Z,15.72
2019-01-13T12:02:46.959Z,15.59
2019-01-13T12:05:13.290Z,15.48
2019-01-13T12:07:39.740Z,15.31
2019-01-13T12:10:06.062Z,15.12
2019-01-13T12:12:32.379Z,15.04
2019-01-13T12:14:58.690Z,15.02
2019-01-13T12:17:24.999Z,14.98
2019-01-13T12:19:51.296Z,14.93
2019-01-13T12:22:17.598Z,14.91
2019-01-13T12:24:43.950Z,14.87
2019-01-13T12:27:10.270Z,14.82
2019-01-13T12:29:36.583Z,14.76
2019-01-13T12:32:02.915Z,14.69
2019-01-13T12:34:29.213Z,14.64
2019-01-13T12:36:55.514Z,14.61
2019-01-13T12:39:21.822Z,14.57
2019-01-13T12:41:48.158Z,14.54
2019-01-13T12:44:14.462Z,14.50
2019-01-13T12:46:40.764Z,14.45
2019-01-13T12:49:07.065Z,14.40
2019-01-13T12:51:33.362Z,14.37
2019-01-13T12:53:59.682Z,14.35
2019-01-13T12:56:25.995Z,14.30
2019-01-13T12:58:52.304Z,14.22
2019-01-13T13:01:18.616Z,14.17
2019-01-13T13:03:45.977Z,14.12
2019-01-13T13:06:12.259Z,14.08
2019-01-13T13:08:38.573Z,14.01
2019-01-13T13:11:05.206Z,13.95
2019-01-13T13:13:31.509Z,13.84
2019-01-13T13:15:57.819Z,13.72
2019-01-13T13:18:24.218Z,13.73
2019-01-13T13:20:50.508Z,13.74
2019-01-13T13:23:16.828Z,13.73
2019-01-13T13:25:43.129Z,13.70
2019-01-13T13:28:09.435Z,13.68
2019-01-13T13:30:35.765Z,13.66
2019-01-13T13:33:02.079Z,13.66
2019-01-13T13:35:28.387Z,13.63
2019-01-13T13:37:54.690Z,13.62
2019-01-13T13:40:21.848Z,13.58
2019-01-13T13:42:47.301Z,13.54
2019-01-13T13:45:13.599Z,13.52
2019-01-13T13:47:39.906Z,13.47
2019-01-13T13:50:06.218Z,13.46
2019-01-13T13:52:32.540Z,13.45
2019-01-13T13:54:58.838Z,13.71
2019-01-13T13:57:25.149Z,13.66
2019-01-13T13:59:51.467Z,13.58
2019-01-13T14:02:17.765Z,13.52
2019-01-13T14:04:44.068Z,13.46
2019-01-13T14:07:10.364Z,13.40
2019-01-13T14:09:36.672Z,13.32
2019-01-13T14:12:02.982Z,13.27
2019-01-13T14:14:29.308Z,13.22
2019-01-13T14:16:55.596Z,13.18
2019-01-13T14:19:21.904Z,13.08
2019-01-13T14:21:48.216Z,12.99
2019-01-13T14:24:14.515Z,12.98
2019-01-13T14:26:40.811Z,12.97
2019-01-13T14:29:07.122Z,12.95
2019-01-13T14:31:33.421Z,12.92
2019-01-13T14:33:59.733Z,12.92
2019-01-13T14:36:26.045Z,12.90
2019-01-13T14:38:52.354Z,12.86
2019-01-13T14:41:18.660Z,12.85
2019-01-13T14:43:44.968Z,12.78
2019-01-13T14:46:11.296Z,12.74
2019-01-13T14:48:37.581Z,12.74
2019-01-13T14:51:03.912Z,12.70
2019-01-13T14:53:30.173Z,12.64
2019-01-13T14:55:56.473Z,12.61
2019-01-13T14:58:22.797Z,12.61
2019-01-13T15:00:49.110Z,12.62
2019-01-13T15:03:15.793Z,12.59
2019-01-13T15:05:41.745Z,12.73
2019-01-13T15:08:08.059Z,12.68
2019-01-13T15:10:34.372Z,12.60
2019-01-13T15:13:00.673Z,12.48
2019-01-13T15:15:26.981Z,12.41
2019-01-13T15:17:53.367Z,12.38
2019-01-13T15:20:19.666Z,12.35
2019-01-13T15:22:47.515Z,12.34
2019-01-13T15:25:12.614Z,12.33
2019-01-13T15:27:38.916Z,12.33
2019-01-13T15:30:11.383Z,12.31
2019-01-13T15:32:37.680Z,12.31
2019-01-13T15:35:03.982Z,12.30
2019-01-13T15:37:30.295Z,12.28
2019-01-13T15:39:56.606Z,12.21
2019-01-13T15:42:22.910Z,12.23
2019-01-13T15:44:49.209Z,12.20
2019-01-13T15:47:15.547Z,12.17
2019-01-13T15:49:41.863Z,12.16
2019-01-13T15:52:08.160Z,12.13
2019-01-13T15:54:34.518Z,12.07
2019-01-13T15:57:00.891Z,12.01
2019-01-13T15:59:27.238Z,11.90
2019-01-13T16:01:53.509Z,11.86
2019-01-13T16:04:19.828Z,11.87
2019-01-13T16:06:46.131Z,11.88
2019-01-13T16:09:12.427Z,11.88
2019-01-13T16:11:38.737Z,11.89
2019-01-13T16:14:05.048Z,11.89
2019-01-13T16:16:31.371Z,11.86
2019-01-13T16:18:57.682Z,11.84
2019-01-13T16:21:23.994Z,11.84
2019-01-13T16:23:50.297Z,11.82
2019-01-13T16:26:16.606Z,11.82
2019-01-13T16:28:42.906Z,11.81
2019-01-13T16:31:09.209Z,11.78
2019-01-13T16:33:35.531Z,11.75
2019-01-13T16:36:01.823Z,11.75
2019-01-13T16:38:28.140Z,11.75
2019-01-13T16:40:54.440Z,11.73
2019-01-13T16:43:20.735Z,11.66
2019-01-13T16:45:47.032Z,11.59
2019-01-13T16:48:13.410Z,11.54
2019-01-13T16:50:39.779Z,11.55
2019-01-13T16:53:06.300Z,11.52
2019-01-13T16:55:32.444Z,11.56
2019-01-13T16:57:58.764Z,11.57
2019-01-13T17:00:25.142Z,11.59
2019-01-13T17:02:51.452Z,11.57
2019-01-13T17:05:18.221Z,11.54
2019-01-13T17:07:44.492Z,11.53
2019-01-13T17:10:14.021Z,11.52
2019-01-13T17:12:40.340Z,11.50
2019-01-13T17:15:06.667Z,11.49
2019-01-13T17:17:33.873Z,11.50
2019-01-13T17:20:00.239Z,11.45
2019-01-13T17:22:27.466Z,11.46
2019-01-13T17:24:53.764Z,11.45
2019-01-13T17:27:20.079Z,11.41
2019-01-13T17:29:46.400Z,11.31
2019-01-13T17:32:12.730Z,11.26
2019-01-13T17:34:39.034Z,11.25
2019-01-13T17:37:05.339Z,11.25
2019-01-13T17:39:31.635Z,11.26
2019-01-13T17:41:57.963Z,11.28
2019-01-13T17:44:24.322Z,11.27
2019-01-13T17:46:50.619Z,11.41
2019-01-13T17:49:17.100Z,11.43
2019-01-13T17:51:43.920Z,11.37
2019-01-13T17:54:10.240Z,11.35
2019-01-13T17:56:36.541Z,11.32
2019-01-13T17:59:02.879Z,11.31
2019-01-13T18:01:29.205Z,11.28
2019-01-13T18:03:55.647Z,11.24
2019-01-13T18:06:21.936Z,11.24
2019-01-13T18:08:48.318Z,11.25
2019-01-13T18:11:14.586Z,11.21
2019-01-13T18:13:40.890Z,11.15
2019-01-13T18:16:07.218Z,11.08
2019-01-13T18:18:33.533Z,11.01
2019-01-13T18:20:59.836Z,11.00
2019-01-13T18:23:26.157Z,11.02
2019-01-13T18:25:52.462Z,11.04
2019-01-13T18:28:18.854Z,11.03
2019-01-13T18:30:47.548Z,11.03
2019-01-13T18:33:13.866Z,11.01
2019-01-13T18:35:40.199Z,11.01
2019-01-13T18:38:06.498Z,11.01
2019-01-13T18:40:32.820Z,11.01
2019-01-13T18:42:59.130Z,11.01
2019-01-13T18:45:25.436Z,10.99
2019-01-13T18:47:51.746Z,10.94
2019-01-13T18:50:18.046Z,10.95
2019-01-13T18:52:44.392Z,10.92
2019-01-13T18:55:10.688Z,10.92
2019-01-13T18:57:36.984Z,10.86
2019-01-13T19:00:03.294Z,10.81
2019-01-13T19:02:30.860Z,10.70
2019-01-13T19:04:57.340Z,10.67
2019-01-13T19:07:22.222Z,10.70
2019-01-13T19:09:48.522Z,10.74
2019-01-13T19:12:14.830Z,10.74
2019-01-13T19:14:41.142Z,10.75
2019-01-13T19:17:07.462Z,10.73
2019-01-13T19:19:33.764Z,10.75
2019-01-13T19:22:00.057Z,10.74
2019-01-13T19:24:26.356Z,10.71
2019-01-13T19:26:52.657Z,10.70
2019-01-13T19:29:18.983Z,10.70
2019-01-13T19:31:45.298Z,10.68
2019-01-13T19:34:12.656Z,10.68
2019-01-13T19:36:37.909Z,10.64
2019-01-13T19:39:04.226Z,10.66
2019-01-13T19:41:30.529Z,10.64
2019-01-13T19:43:56.839Z,10.55
2019-01-13T19:46:23.150Z,10.49
2019-01-13T19:48:49.711Z,10.40
2019-01-13T19:51:16.014Z,10.39
2019-01-13T19:53:42.319Z,10.42
2019-01-13T19:56:08.617Z,10.43
2019-01-13T19:58:34.912Z,10.45
2019-01-13T20:01:01.226Z,10.48
2019-01-13T20:03:27.524Z,10.46
2019-01-13T20:05:53.833Z,10.46
2019-01-13T20:08:20.151Z,10.42
2019-01-13T20:10:46.484Z,10.40
2019-01-13T20:13:12.781Z,10.38
2019-01-13T20:15:39.290Z,10.35
2019-01-13T20:18:05.614Z,10.34
2019-01-13T20:20:31.896Z,10.38
2019-01-13T20:22:58.450Z,10.35
2019-01-13T20:25:24.785Z,10.28
2019-01-13T20:27:53.181Z,10.14
2019-01-13T20:30:17.406Z,10.02
2019-01-13T20:32:43.718Z,9.96
2019-01-13T20:35:10.140Z,9.88
2019-01-13T20:37:36.914Z,9.90
2019-01-13T20:40:03.166Z,9.91
2019-01-13T20:42:29.473Z,9.92
2019-01-13T20:44:55.791Z,9.92
2019-01-13T20:47:22.113Z,9.92
2019-01-13T20:49:48.399Z,9.90
2019-01-13T20:52:14.722Z,9.89
2019-01-13T20:54:41.030Z,9.86
2019-01-13T20:57:07.361Z,9.87
2019-01-13T20:59:33.670Z,9.85
2019-01-13T21:02:00.129Z,9.81
2019-01-13T21:04:26.443Z,9.80
2019-01-13T21:06:52.743Z,9.79
2019-01-13T21:09:19.044Z,9.79
2019-01-13T21:11:45.564Z,9.77
2019-01-13T21:14:11.884Z,9.69
2019-01-13T21:16:38.213Z,9.57
2019-01-13T21:19:04.533Z,9.46
2019-01-13T21:21:30.842Z,9.38
2019-01-13T21:23:57.147Z,9.42
2019-01-13T21:26:23.457Z,9.42
2019-01-13T21:28:49.774Z,9.47
2019-01-13T21:31:18.571Z,9.50
2019-01-13T21:33:47.416Z,9.51
2019-01-13T21:36:11.334Z,9.50
2019-01-13T21:38:37.645Z,9.47
2019-01-13T21:41:03.942Z,9.44
2019-01-13T21:43:30.239Z,9.38
2019-01-13T21:45:56.540Z,9.37
2019-01-13T21:48:22.869Z,9.40
2019-01-13T21:50:49.179Z,9.40
2019-01-13T21:53:15.479Z,9.39
2019-01-13T21:55:41.785Z,9.38
2019-01-13T21:58:08.093Z,9.34
2019-01-13T22:00:34.392Z,9.24
2019-01-13T22:03:00.717Z,9.12
2019-01-13T22:05:27.019Z,9.04
2019-01-13T22:07:53.339Z,9.04
2019-01-13T22:10:19.644Z,9.08
2019-01-13T22:12:45.959Z,9.12
2019-01-13T22:15:12.273Z,9.15
2019-01-13T22:17:38.577Z,9.18
2019-01-13T22:20:04.877Z,9.20
2019-01-13T22:22:31.170Z,9.21
2019-01-13T22:24:57.477Z,9.21
2019-01-13T22:27:23.780Z,9.20
2019-01-13T22:29:50.097Z,9.17
2019-01-13T22:32:16.395Z,9.16
2019-01-13T22:34:42.703Z,9.14
2019-01-13T22:37:09.015Z,9.11
2019-01-13T22:39:35.344Z,9.07
2019-01-13T22:42:01.646Z,9.10
2019-01-13T22:44:27.974Z,9.06
2019-01-13T22:46:54.304Z,8.94
2019-01-13T22:49:20.615Z,8.84
2019-01-13T22:51:46.919Z,8.73
2019-01-13T22:54:13.218Z,8.76
2019-01-13T22:56:39.519Z,8.82
2019-01-13T22:59:05.836Z,8.87
2019-01-13T23:01:32.145Z,8.88
2019-01-13T23:03:58.451Z,8.87
2019-01-13T23:06:24.773Z,8.87
2019-01-13T23:08:51.087Z,8.91
2019-01-13T23:11:17.386Z,8.92
2019-01-13T23:13:43.685Z,8.93
2019-01-13T23:16:09.997Z,8.90
2019-01-13T23:18:36.296Z,8.92
2019-01-13T23:21:02.595Z,8.90
2019-01-13T23:23:28.909Z,8.88
2019-01-13T23:25:55.257Z,8.86
2019-01-13T23:28:21.541Z,8.83
2019-01-13T23:30:47.879Z,8.80
2019-01-13T23:33:14.170Z,8.73
2019-01-13T23:35:40.504Z,8.57
2019-01-13T23:38:06.784Z,8.47
2019-01-13T23:40:33.100Z,8.50
2019-01-13T23:42:59.422Z,8.58
2019-01-13T23:45:25.721Z,8.61
2019-01-13T23:47:52.075Z,8.65
2019-01-13T23:50:18.392Z,8.63
2019-01-13T23:52:44.697Z,8.59
2019-01-13T23:55:11.011Z,8.59
2019-01-13T23:57:37.324Z,8.58
